createdAt,value
2023-02-09T00:00:13.292Z,4.32
2023-02-09T00:05:04.083Z,4.29
2023-02-09T00:09:55.334Z,4.21
2023-02-09T00:14:49.490Z,4.21
2023-02-09T00:19:52.503Z,4.15
2023-02-09T00:24:46.626Z,4.16
2023-02-09T00:29:41.191Z,4.15
2023-02-09T00:34:34.004Z,4.11
2023-02-09T00:39:28.468Z,4.08
2023-02-09T00:44:22.136Z,3.98
2023-02-09T00:49:19.863Z,3.99
2023-02-09T00:54:11.103Z,3.94
2023-02-09T00:59:07.175Z,3.92
2023-02-09T01:04:00.906Z,3.85
2023-02-09T01:08:54.113Z,3.80
2023-02-09T01:13:48.079Z,3.82
2023-02-09T01:18:50.383Z,3.67
2023-02-09T01:23:43.023Z,3.71
2023-02-09T01:28:34.224Z,3.65
2023-02-09T01:33:27.373Z,3.59
2023-02-09T01:38:24.389Z,3.61
2023-02-09T01:43:15.101Z,3.59
2023-02-09T01:48:07.004Z,3.44
2023-02-09T01:52:58.902Z,3.44
2023-02-09T01:58:00.114Z,3.52
2023-02-09T02:02:57.771Z,3.48
2023-02-09T02:07:59.264Z,3.51
2023-02-09T02:12:56.517Z,3.52
2023-02-09T02:18:17.459Z,3.49
2023-02-09T02:23:25.202Z,3.47
2023-02-09T02:28:37.662Z,3.58
2023-02-09T02:33:42.738Z,3.45
2023-02-09T02:38:43.518Z,3.41
2023-02-09T02:43:43.951Z,3.44
2023-02-09T02:48:46.507Z,3.43
2023-02-09T02:53:46.156Z,3.43
2023-02-09T02:58:45.545Z,3.32
2023-02-09T03:03:43.268Z,3.43
2023-02-09T03:08:49.442Z,3.34
2023-02-09T03:13:51.615Z,3.41
2023-02-09T03:19:24.047Z,3.22
2023-02-09T03:24:41.096Z,3.29
2023-02-09T03:29:38.947Z,3.27
2023-02-09T03:34:34.580Z,3.32
2023-02-09T03:39:27.576Z,3.27
2023-02-09T03:44:34.953Z,3.32
2023-02-09T03:49:26.920Z,3.33
2023-02-09T03:54:21.316Z,3.29
2023-02-09T03:59:13.248Z,3.26
2023-02-09T04:04:09.398Z,3.28
2023-02-09T04:09:03.662Z,3.18
2023-02-09T04:14:01.894Z,3.23
2023-02-09T04:18:57.584Z,3.34
2023-02-09T04:23:49.311Z,3.34
2023-02-09T04:28:41.106Z,3.37
2023-02-09T04:33:38.304Z,3.40
2023-02-09T04:38:30.875Z,3.31
2023-02-09T04:43:22.217Z,3.41
2023-02-09T04:48:18.899Z,3.38
2023-02-09T04:53:13.293Z,3.27
2023-02-09T04:58:17.263Z,3.30
2023-02-09T05:03:15.100Z,3.28
2023-02-09T05:08:07.074Z,3.24
2023-02-09T05:13:01.025Z,3.27
2023-02-09T05:17:52.630Z,3.24
2023-02-09T05:22:45.831Z,3.19
2023-02-09T05:27:37.700Z,3.20
2023-02-09T05:32:37.410Z,3.14
2023-02-09T05:37:28.882Z,3.11
2023-02-09T05:42:21.369Z,3.13
2023-02-09T05:47:14.482Z,3.13
2023-02-09T05:52:11.628Z,3.15
2023-02-09T05:57:01.359Z,3.09
2023-02-09T06:01:51.092Z,3.11
2023-02-09T06:06:41.868Z,3.06
2023-02-09T06:11:40.678Z,3.13
2023-02-09T06:16:38.745Z,2.98
2023-02-09T06:21:35.204Z,3.03
2023-02-09T06:26:29.550Z,3.03
2023-02-09T06:31:27.096Z,2.96
2023-02-09T06:36:17.969Z,2.93
2023-02-09T06:41:10.435Z,2.87
2023-02-09T06:46:05.259Z,2.81
2023-02-09T06:50:58.620Z,2.84
2023-02-09T06:55:51.700Z,2.82
2023-02-09T07:00:44.381Z,2.80
2023-02-09T07:05:34.730Z,2.67
2023-02-09T07:10:30.795Z,2.69
2023-02-09T07:15:26.586Z,2.70
2023-02-09T07:20:18.843Z,2.71
2023-02-09T07:25:11.664Z,2.60
2023-02-09T07:30:08.179Z,2.73
2023-02-09T07:34:58.509Z,2.78
2023-02-09T07:39:51.591Z,2.63
2023-02-09T07:44:43.613Z,2.47
2023-02-09T07:49:39.642Z,2.69
2023-02-09T07:54:34.275Z,2.95
2023-02-09T07:59:25.522Z,3.16
2023-02-09T08:04:19.467Z,3.14
2023-02-09T08:09:14.667Z,3.35
2023-02-09T08:14:10.215Z,3.38
2023-02-09T08:19:05.978Z,3.61
2023-02-09T08:24:00.150Z,3.64
2023-02-09T08:28:54.589Z,3.79
2023-02-09T08:33:44.784Z,3.77
2023-02-09T08:38:34.567Z,3.93
2023-02-09T08:43:24.894Z,4.01
2023-02-09T08:48:17.686Z,4.10
2023-02-09T08:53:09.899Z,4.17
2023-02-09T08:58:05.883Z,4.38
2023-02-09T09:02:57.484Z,4.51
2023-02-09T09:08:05.423Z,4.64
2023-02-09T09:12:57.697Z,4.78
2023-02-09T09:17:49.729Z,4.90
2023-02-09T09:22:48.365Z,4.97
2023-02-09T09:27:44.137Z,4.93
2023-02-09T09:32:35.174Z,5.34
2023-02-09T09:37:27.493Z,5.43
2023-02-09T09:42:26.851Z,5.56
2023-02-09T09:47:25.119Z,5.76
2023-02-09T09:52:24.292Z,6.30
2023-02-09T09:57:21.743Z,6.74
2023-02-09T10:02:26.802Z,7.05
2023-02-09T10:07:25.550Z,6.78
2023-02-09T10:12:35.657Z,7.03
2023-02-09T10:17:31.738Z,7.26
2023-02-09T10:22:24.276Z,7.90
2023-02-09T10:27:20.327Z,7.70
2023-02-09T10:32:19.441Z,7.41
2023-02-09T10:37:24.558Z,7.31
2023-02-09T10:42:24.894Z,7.32
2023-02-09T10:47:30.782Z,7.06
2023-02-09T10:52:26.033Z,7.11
2023-02-09T10:57:27.282Z,7.32
2023-02-09T11:02:38.536Z,7.47
2023-02-09T11:07:42.061Z,7.58
2023-02-09T11:12:33.050Z,7.56
2023-02-09T11:17:29.475Z,7.62
2023-02-09T11:22:29.517Z,7.71
2023-02-09T11:27:38.924Z,7.99
2023-02-09T11:32:39.957Z,8.33
2023-02-09T11:37:43.160Z,8.58
2023-02-09T11:42:51.856Z,8.84
2023-02-09T11:47:56.184Z,9.06
2023-02-09T11:52:56.135Z,9.09
2023-02-09T11:57:57.912Z,8.98
2023-02-09T12:02:58.263Z,8.68
2023-02-09T12:08:10.977Z,8.63
2023-02-09T12:13:29.421Z,8.69
2023-02-09T12:18:24.334Z,8.40
2023-02-09T12:23:21.735Z,8.79
2023-02-09T12:28:42.826Z,9.00
2023-02-09T12:33:40.739Z,9.02
2023-02-09T12:38:55.940Z,9.18
2023-02-09T12:43:55.643Z,9.28
2023-02-09T12:48:54.312Z,9.27
2023-02-09T12:53:54.472Z,9.34
2023-02-09T12:59:18.557Z,9.47
2023-02-09T13:04:16.606Z,9.48
2023-02-09T13:09:13.407Z,9.52
2023-02-09T13:14:10.165Z,9.59
2023-02-09T13:19:20.877Z,9.68
2023-02-09T13:24:18.860Z,9.67
2023-02-09T13:29:20.253Z,9.74
2023-02-09T13:34:26.407Z,9.74
2023-02-09T13:39:27.304Z,9.57
2023-02-09T13:44:26.345Z,9.62
2023-02-09T13:49:24.313Z,9.54
2023-02-09T13:54:42.944Z,9.51
2023-02-09T13:59:34.259Z,9.38
2023-02-09T14:04:28.914Z,9.27
2023-02-09T14:09:27.343Z,9.27
2023-02-09T14:14:23.998Z,9.31
2023-02-09T14:19:29.502Z,9.30
2023-02-09T14:24:25.872Z,9.24
2023-02-09T14:29:20.532Z,9.25
2023-02-09T14:34:26.641Z,9.24
2023-02-09T14:39:21.636Z,9.13
2023-02-09T14:44:25.257Z,9.12
2023-02-09T14:49:17.455Z,9.23
2023-02-09T14:54:16.753Z,9.25
2023-02-09T14:59:13.756Z,9.19
2023-02-09T15:04:16.054Z,9.16
2023-02-09T15:09:07.551Z,8.87
2023-02-09T15:14:04.042Z,9.11
2023-02-09T15:18:55.539Z,9.08
2023-02-09T15:23:48.051Z,9.22
2023-02-09T15:28:42.052Z,9.16
2023-02-09T15:33:41.627Z,9.29
2023-02-09T15:38:32.815Z,9.26
2023-02-09T15:43:47.710Z,9.31
2023-02-09T15:48:39.040Z,9.22
2023-02-09T15:53:31.232Z,9.22
2023-02-09T15:58:35.346Z,9.29
2023-02-09T16:03:29.530Z,9.32
2023-02-09T16:08:25.564Z,9.32
2023-02-09T16:13:17.838Z,9.35
2023-02-09T16:18:14.478Z,9.36
2023-02-09T16:23:20.241Z,9.36
2023-02-09T16:28:16.515Z,9.28
2023-02-09T16:33:07.391Z,9.23
2023-02-09T16:38:01.532Z,9.28
2023-02-09T16:42:55.707Z,9.26
2023-02-09T16:47:51.163Z,9.22
2023-02-09T16:52:46.272Z,9.17
2023-02-09T16:57:42.179Z,9.17
2023-02-09T17:02:47.102Z,9.04
2023-02-09T17:07:53.974Z,9.03
2023-02-09T17:12:49.089Z,9.01
2023-02-09T17:17:40.254Z,8.89
2023-02-09T17:22:31.842Z,8.95
2023-02-09T17:27:23.450Z,8.92
2023-02-09T17:32:21.080Z,8.95
2023-02-09T17:37:16.980Z,8.86
2023-02-09T17:42:08.347Z,8.82
2023-02-09T17:47:00.595Z,8.67
2023-02-09T17:51:57.014Z,8.71
2023-02-09T17:56:48.723Z,8.45
2023-02-09T18:01:45.491Z,8.49
2023-02-09T18:06:43.136Z,8.50
2023-02-09T18:12:05.776Z,8.43
2023-02-09T18:16:58.325Z,8.42
2023-02-09T18:21:53.452Z,8.48
2023-02-09T18:26:43.410Z,8.39
2023-02-09T18:31:37.856Z,8.42
2023-02-09T18:36:29.076Z,8.42
2023-02-09T18:41:29.887Z,8.49
2023-02-09T18:46:22.206Z,8.55
2023-02-09T18:51:18.408Z,8.40
2023-02-09T18:56:18.688Z,8.42
2023-02-09T19:01:14.481Z,8.36
2023-02-09T19:06:10.593Z,8.29
2023-02-09T19:11:05.759Z,8.11
2023-02-09T19:15:59.119Z,8.21
2023-02-09T19:21:00.120Z,8.07
2023-02-09T19:25:53.429Z,8.17
2023-02-09T19:30:50.609Z,8.00
2023-02-09T19:35:44.073Z,7.89
2023-02-09T19:40:41.902Z,7.91
2023-02-09T19:45:36.665Z,7.82
2023-02-09T19:50:29.186Z,7.67
2023-02-09T19:55:20.732Z,7.53
2023-02-09T20:00:18.369Z,7.59
2023-02-09T20:05:10.455Z,7.49
2023-02-09T20:10:09.791Z,7.40
2023-02-09T20:15:02.543Z,7.47
2023-02-09T20:19:52.768Z,7.33
2023-02-09T20:24:49.054Z,7.29
2023-02-09T20:29:47.608Z,7.23
2023-02-09T20:34:42.563Z,7.13
2023-02-09T20:39:32.685Z,7.08
2023-02-09T20:44:34.884Z,7.12
2023-02-09T20:49:31.331Z,6.93
2023-02-09T20:54:27.231Z,6.99
2023-02-09T20:59:36.531Z,6.91
2023-02-09T21:04:35.155Z,6.80
2023-02-09T21:09:31.450Z,6.68
2023-02-09T21:14:27.939Z,6.76
2023-02-09T21:19:27.344Z,6.76
2023-02-09T21:24:24.445Z,6.66
2023-02-09T21:29:20.159Z,6.63
2023-02-09T21:34:13.758Z,6.57
2023-02-09T21:39:05.679Z,6.48
2023-02-09T21:44:04.855Z,6.47
2023-02-09T21:48:56.084Z,6.45
2023-02-09T21:53:50.295Z,6.35
2023-02-09T21:58:41.693Z,6.36
2023-02-09T22:03:38.092Z,6.34
2023-02-09T22:08:31.219Z,6.36
2023-02-09T22:13:26.156Z,6.29
2023-02-09T22:18:18.421Z,6.18
2023-02-09T22:23:13.375Z,6.17
2023-02-09T22:28:05.204Z,6.05
2023-02-09T22:32:58.949Z,6.05
2023-02-09T22:37:52.507Z,6.06
2023-02-09T22:42:46.226Z,6.00
2023-02-09T22:47:40.166Z,5.92
2023-02-09T22:52:39.750Z,5.95
2023-02-09T22:57:33.194Z,5.89
2023-02-09T23:02:27.656Z,5.95
2023-02-09T23:07:19.140Z,5.58
2023-02-09T23:12:16.534Z,5.85
2023-02-09T23:17:07.890Z,5.78
2023-02-09T23:22:01.589Z,5.77
2023-02-09T23:26:53.277Z,5.76
2023-02-09T23:31:44.913Z,5.58
2023-02-09T23:36:36.673Z,5.58
2023-02-09T23:41:30.034Z,5.73
2023-02-09T23:46:23.494Z,5.78
2023-02-09T23:51:25.482Z,5.73
2023-02-09T23:56:20.310Z,5.72
